Terminal Aerodrome Forecast
Issued by NWS Knoxville/Tri Cities, TN

Current Version | Previous Version | Text Only | Print | Product List | Glossary On
Versions: 1 2 3 4 5 6 7 8 9 10 11 12 13 14 15 16 17 18 19 20 21 22 23 24 25 26 27 28 29
000
FTUS44 KMRX 011720
TAFTRI
TAF
KTRI 011720Z 0118/0218 VRB03KT P6SM BKN100
     FM012000 15006KT P6SM -RA BKN050
     FM020200 18009KT 4SM -RA OVC040
     FM020700 24012KT 3SM -RA SCT010 OVC022
     FM021200 26018G28KT 4SM -SN BR BKN020=

USA.gov is the U.S. government's official web portal to all federal, state and local government web resources and services.